createdAt,value
2022-12-24T00:00:29.611Z,87.30
2022-12-24T00:05:32.557Z,87.29
2022-12-24T00:10:35.463Z,86.95
2022-12-24T00:15:39.699Z,87.24
2022-12-24T00:20:43.116Z,86.09
2022-12-24T00:25:46.641Z,87.04
2022-12-24T00:30:50.901Z,86.94
2022-12-24T00:35:54.224Z,86.31
2022-12-24T00:41:00.698Z,85.72
2022-12-24T00:46:05.248Z,85.18
2022-12-24T00:51:08.350Z,82.50
2022-12-24T00:56:11.856Z,82.14
2022-12-24T01:01:16.942Z,81.25
2022-12-24T01:06:21.979Z,81.26
2022-12-24T01:11:24.854Z,81.32
2022-12-24T01:16:29.262Z,81.96
2022-12-24T01:21:32.249Z,81.89
2022-12-24T01:26:35.160Z,81.31
2022-12-24T01:31:39.755Z,80.66
2022-12-24T01:36:42.707Z,80.57
2022-12-24T01:42:02.928Z,79.86
2022-12-24T01:47:12.457Z,80.22
2022-12-24T01:52:21.083Z,80.51
2022-12-24T01:57:28.488Z,82.61
2022-12-24T02:02:34.182Z,84.32
2022-12-24T02:07:38.426Z,85.58
2022-12-24T02:12:43.298Z,85.17
2022-12-24T02:17:56.660Z,83.00
2022-12-24T02:23:32.037Z,81.21
2022-12-24T02:28:47.644Z,81.04
2022-12-24T02:33:58.627Z,82.36
2022-12-24T02:39:05.102Z,83.18
2022-12-24T02:44:08.349Z,82.92
2022-12-24T02:49:13.516Z,83.46
2022-12-24T02:54:16.752Z,83.84
2022-12-24T02:59:35.938Z,84.14
2022-12-24T03:04:49.789Z,84.86
2022-12-24T03:10:03.496Z,83.92
2022-12-24T03:15:09.099Z,84.45
2022-12-24T03:20:17.653Z,83.97
2022-12-24T03:25:25.233Z,84.18
2022-12-24T03:30:28.352Z,84.95
2022-12-24T03:35:32.621Z,85.14
2022-12-24T03:40:35.553Z,84.86
2022-12-24T03:45:38.536Z,84.53
2022-12-24T03:50:42.834Z,84.54
2022-12-24T03:55:45.787Z,84.62
2022-12-24T04:00:48.742Z,83.45
2022-12-24T04:06:02.745Z,83.20
2022-12-24T04:11:09.709Z,82.23
2022-12-24T04:16:14.966Z,81.21
2022-12-24T04:21:19.590Z,80.71
2022-12-24T04:26:22.554Z,80.20
2022-12-24T04:31:25.514Z,79.63
2022-12-24T04:36:29.959Z,79.14
2022-12-24T04:41:33.527Z,79.31
2022-12-24T04:46:36.557Z,78.87
2022-12-24T04:51:40.792Z,79.48
2022-12-24T04:56:43.716Z,80.61
2022-12-24T05:01:46.663Z,79.93
2022-12-24T05:06:51.012Z,80.55
2022-12-24T05:11:53.903Z,79.53
2022-12-24T05:16:56.846Z,78.57
2022-12-24T05:22:18.985Z,79.07
2022-12-24T05:27:22.129Z,79.36
2022-12-24T05:32:25.042Z,80.11
2022-12-24T05:37:29.320Z,80.54
2022-12-24T05:42:32.329Z,80.58
2022-12-24T05:47:41.269Z,80.09
2022-12-24T05:52:47.470Z,79.97
2022-12-24T05:57:50.361Z,80.55
2022-12-24T06:02:53.368Z,81.24
2022-12-24T06:07:57.648Z,80.82
2022-12-24T06:13:00.601Z,81.16
2022-12-24T06:18:03.488Z,81.75
2022-12-24T06:23:07.740Z,81.75
2022-12-24T06:28:10.605Z,81.50
2022-12-24T06:33:13.511Z,80.64
2022-12-24T06:38:17.833Z,79.55
2022-12-24T06:43:20.921Z,78.88
2022-12-24T06:48:23.820Z,77.11
2022-12-24T06:53:28.039Z,76.05
2022-12-24T06:58:31.201Z,75.61
2022-12-24T07:03:34.631Z,74.31
2022-12-24T07:08:38.957Z,74.28
2022-12-24T07:13:42.179Z,73.84
2022-12-24T07:18:45.785Z,72.84
2022-12-24T07:23:50.059Z,72.74
2022-12-24T07:28:52.980Z,72.90
2022-12-24T07:33:55.933Z,71.86
2022-12-24T07:39:00.242Z,72.19
2022-12-24T07:44:03.236Z,72.46
2022-12-24T07:49:06.182Z,72.60
2022-12-24T07:54:10.532Z,73.31
2022-12-24T07:59:14.120Z,73.82
2022-12-24T08:04:17.033Z,75.54
2022-12-24T08:09:21.318Z,76.15
2022-12-24T08:14:24.323Z,76.52
2022-12-24T08:19:27.260Z,76.95
2022-12-24T08:24:31.686Z,76.68
2022-12-24T08:29:34.667Z,75.30
2022-12-24T08:34:37.580Z,75.03
2022-12-24T08:39:41.852Z,75.53
2022-12-24T08:44:44.945Z,74.70
2022-12-24T08:49:47.906Z,74.94
2022-12-24T08:54:52.603Z,73.15
2022-12-24T08:59:55.710Z,72.32
2022-12-24T09:04:58.604Z,70.96
2022-12-24T09:10:03.137Z,70.64
2022-12-24T09:15:08.234Z,71.27
2022-12-24T09:20:12.022Z,69.82
2022-12-24T09:25:16.361Z,68.73
2022-12-24T09:30:19.414Z,69.04
2022-12-24T09:35:22.357Z,69.10
2022-12-24T09:40:34.147Z,69.32
2022-12-24T09:45:42.820Z,69.41
2022-12-24T09:50:53.113Z,69.40
2022-12-24T09:56:00.128Z,68.96
2022-12-24T10:01:03.197Z,69.51
2022-12-24T10:06:12.080Z,69.30
2022-12-24T10:11:20.619Z,69.69
2022-12-24T10:16:30.117Z,70.14
2022-12-24T10:21:43.851Z,69.97
2022-12-24T10:26:54.576Z,70.29
2022-12-24T10:32:02.281Z,70.68
2022-12-24T10:37:05.865Z,70.60
2022-12-24T10:42:12.519Z,70.06
2022-12-24T10:47:16.054Z,69.97
2022-12-24T10:52:22.704Z,70.36
2022-12-24T10:57:28.045Z,70.69
2022-12-24T11:02:33.831Z,71.56
2022-12-24T11:07:36.978Z,71.67
2022-12-24T11:13:00.613Z,72.69
2022-12-24T11:18:16.180Z,73.18
2022-12-24T11:23:19.243Z,73.23
2022-12-24T11:28:25.577Z,76.38
2022-12-24T11:33:28.833Z,78.46
2022-12-24T11:38:33.812Z,78.53
2022-12-24T11:43:47.161Z,77.84
2022-12-24T11:49:08.341Z,77.45
2022-12-24T11:54:18.364Z,76.40
2022-12-24T11:59:31.589Z,76.00
2022-12-24T12:04:37.585Z,74.73
2022-12-24T12:09:44.537Z,74.90
2022-12-24T12:14:53.293Z,74.95
2022-12-24T12:20:01.298Z,74.77
2022-12-24T12:25:06.851Z,74.74
2022-12-24T12:30:18.681Z,74.22
2022-12-24T12:35:26.651Z,74.89
2022-12-24T12:40:56.436Z,76.59
2022-12-24T12:46:08.408Z,77.63
2022-12-24T12:51:20.519Z,75.68
2022-12-24T12:56:31.376Z,75.56
2022-12-24T13:01:44.414Z,74.84
2022-12-24T13:07:06.663Z,74.45
2022-12-24T13:12:40.789Z,74.33
2022-12-24T13:18:16.402Z,73.94
2022-12-24T13:23:23.544Z,74.07
2022-12-24T13:28:38.684Z,74.31
2022-12-24T13:33:49.675Z,73.62
2022-12-24T13:38:57.064Z,73.84
2022-12-24T13:44:04.585Z,73.22
2022-12-24T13:49:13.207Z,73.35
2022-12-24T13:54:21.041Z,73.02
2022-12-24T13:59:38.655Z,73.74
2022-12-24T14:04:42.567Z,74.10
2022-12-24T14:09:50.879Z,73.41
2022-12-24T14:14:53.823Z,73.09
2022-12-24T14:19:59.756Z,73.62
2022-12-24T14:25:14.644Z,73.52
2022-12-24T14:30:20.699Z,73.67
2022-12-24T14:35:27.393Z,73.95
2022-12-24T14:40:34.384Z,74.56
2022-12-24T14:45:46.209Z,74.76
2022-12-24T14:51:07.981Z,75.30
2022-12-24T14:56:15.469Z,75.33
2022-12-24T15:01:24.978Z,75.84
2022-12-24T15:06:29.296Z,75.68
2022-12-24T15:11:33.895Z,75.79
2022-12-24T15:16:37.937Z,75.59
2022-12-24T15:21:44.266Z,75.35
2022-12-24T15:26:48.615Z,75.34
2022-12-24T15:31:55.393Z,74.91
2022-12-24T15:37:07.755Z,75.17
2022-12-24T15:42:18.987Z,75.51
2022-12-24T15:47:27.635Z,74.67
2022-12-24T15:52:31.085Z,75.11
2022-12-24T15:57:35.845Z,74.37
2022-12-24T16:02:41.445Z,74.86
2022-12-24T16:08:10.232Z,74.77
2022-12-24T16:13:19.614Z,75.06
2022-12-24T16:18:27.903Z,75.05
2022-12-24T16:23:38.281Z,75.21
2022-12-24T16:28:42.730Z,75.20
2022-12-24T16:33:46.191Z,73.62
2022-12-24T16:39:06.323Z,74.81
2022-12-24T16:44:10.590Z,74.92
2022-12-24T16:49:17.626Z,75.76
2022-12-24T16:54:20.543Z,75.81
2022-12-24T16:59:26.418Z,75.92
2022-12-24T17:04:29.375Z,76.34
2022-12-24T17:09:32.742Z,76.91
2022-12-24T17:14:38.893Z,77.63
2022-12-24T17:19:42.051Z,78.58
2022-12-24T17:24:45.214Z,78.76
2022-12-24T17:29:49.512Z,78.63
2022-12-24T17:34:52.481Z,79.37
2022-12-24T17:39:55.832Z,79.65
2022-12-24T17:45:00.117Z,80.67
2022-12-24T17:50:03.058Z,81.37
2022-12-24T17:55:07.216Z,81.23
2022-12-24T18:00:12.981Z,81.06
2022-12-24T18:05:16.258Z,81.57
2022-12-24T18:10:19.582Z,82.20
2022-12-24T18:15:24.109Z,82.96
2022-12-24T18:20:27.398Z,81.47
2022-12-24T18:25:30.385Z,80.81
2022-12-24T18:30:34.740Z,79.79
2022-12-24T18:35:37.677Z,78.91
2022-12-24T18:40:40.576Z,79.26
2022-12-24T18:45:46.139Z,78.57
2022-12-24T18:50:55.774Z,78.85
2022-12-24T18:56:04.200Z,78.91
2022-12-24T19:01:14.039Z,79.56
2022-12-24T19:06:17.588Z,78.81
2022-12-24T19:11:22.164Z,79.74
2022-12-24T19:16:27.200Z,79.46
2022-12-24T19:21:30.219Z,79.09
2022-12-24T19:26:33.168Z,79.67
2022-12-24T19:31:37.535Z,79.93
2022-12-24T19:36:40.561Z,80.05
2022-12-24T19:41:43.482Z,80.86
2022-12-24T19:46:47.745Z,81.20
2022-12-24T19:51:50.648Z,81.25
2022-12-24T19:56:53.555Z,81.20
2022-12-24T20:01:57.892Z,82.07
2022-12-24T20:07:01.117Z,81.97
2022-12-24T20:12:04.802Z,81.33
2022-12-24T20:17:09.283Z,82.07
2022-12-24T20:22:12.366Z,81.92
2022-12-24T20:27:15.325Z,81.20
2022-12-24T20:32:21.443Z,82.10
2022-12-24T20:37:25.943Z,82.49
2022-12-24T20:42:28.812Z,82.09
2022-12-24T20:47:33.468Z,82.42
2022-12-24T20:52:36.413Z,82.72
2022-12-24T20:57:39.350Z,82.95
2022-12-24T21:02:44.185Z,82.77
2022-12-24T21:07:47.990Z,83.81
2022-12-24T21:12:56.752Z,83.30
2022-12-24T21:18:01.644Z,83.96
2022-12-24T21:23:04.557Z,83.18
2022-12-24T21:28:07.554Z,83.41
2022-12-24T21:33:12.032Z,83.68
2022-12-24T21:38:15.046Z,84.38
2022-12-24T21:43:17.936Z,84.30
2022-12-24T21:48:40.030Z,84.40
2022-12-24T21:54:00.576Z,83.99
2022-12-24T21:59:03.497Z,84.51
2022-12-24T22:04:07.807Z,84.43
2022-12-24T22:09:29.449Z,83.98
2022-12-24T22:14:33.083Z,84.25
2022-12-24T22:19:38.682Z,83.42
2022-12-24T22:24:41.653Z,83.90
2022-12-24T22:29:44.618Z,83.93
2022-12-24T22:34:49.434Z,85.21
2022-12-24T22:39:52.318Z,84.55
2022-12-24T22:44:55.241Z,84.75
2022-12-24T22:50:00.054Z,85.22
2022-12-24T22:55:03.604Z,85.07
2022-12-24T23:00:12.337Z,85.20
2022-12-24T23:05:18.623Z,85.18
2022-12-24T23:10:21.569Z,83.99
2022-12-24T23:15:24.499Z,84.69
2022-12-24T23:20:28.752Z,84.37
2022-12-24T23:25:31.690Z,85.12
2022-12-24T23:30:34.625Z,85.18
2022-12-24T23:35:38.938Z,84.27
2022-12-24T23:40:42.886Z,85.29
2022-12-24T23:45:49.339Z,85.31
2022-12-24T23:51:03.559Z,84.99
2022-12-24T23:56:07.366Z,84.80
